• Join FlightAware (Why Join?)
  • Login
  • US Flag 
12:48PM EST


 

Airport Tracker/Info


-or-


 

Live Flight TrackerFlight Track Log ✈ XOJ552 ✈ 07-Feb-2014 ✈ KPNE - KSJC

Flight Track Log - Related Links

Times and Time Zones

All times are in EST time to prevent confusion due to time zone crossing. See the XOJ552 flight status page for this flight to view local times or setup timezone preferences in your user account.

Time Position Orientation Groundspeed Altitude Reporting Facility
EST Latitude Longitude Course Direction KTS MPH feet Rate Location/Type
01:19PM 40.0667 -75.0333 270° West 163 188 1,000  Level Philadelphia TRACON
01:19PM 40.0667 -75.0667 270° West 198 228 2,400 2,280 Climbing Philadelphia TRACON
01:20PM 40.0500 -75.1500 255° West 241 277 4,700 2,340 Climbing Philadelphia TRACON
01:21PM 40.0333 -75.2333 255° West 229 264 7,100 1,800 Climbing Philadelphia TRACON
01:23PM 39.9831 -75.3981 248° West 275 316 10,000 960 Climbing New York Center
01:24PM 39.9581 -75.5047 253° West 298 343 10,000 360 Level New York Center
01:25PM 39.9306 -75.6139 252° West 315 362 10,800 1,320 Climbing New York Center
01:26PM 39.9156 -75.7267 260° West 321 369 12,700 2,400 Climbing New York Center
01:27PM 39.9133 -75.8319 268° West 307 353 15,700 2,820 Climbing New York Center
01:28PM 39.9128 -75.9375 270° West 299 344 18,400 2,700 Climbing New York Center
01:29PM 39.9119 -76.0483 269° West 299 344 21,100 2,820 Climbing New York Center
01:30PM 39.9114 -76.1567 270° West 304 350 24,100 2,880 Climbing New York Center
01:31PM 39.9108 -76.2594 270° West 304 350 26,900 1,440 Climbing New York Center
01:32PM 39.9156 -76.3761 273° West 309 356 27,000 420 Climbing New York Center
01:33PM 39.9222 -76.4986 274° West 331 381 27,800 1,380 Climbing New York Center
01:34PM 39.9250 -76.6153 272° West 331 381 29,800 2,040 Climbing New York Center
01:35PM 39.9281 -76.7211 272° West 316 364 31,900 1,620 Climbing New York Center
01:36PM 39.9331 -76.8244 274° West 303 349 33,100 1,200 Climbing New York Center
01:37PM 39.9381 -76.9331 273° West 303 349 34,300 1,200 Climbing New York Center
01:38PM 39.9403 -77.0444 272° West 303 349 35,500 1,080 Climbing New York Center
01:39PM 39.9447 -77.1558 273° West 309 356 36,500 960 Climbing New York Center
01:40PM 39.9492 -77.2700 273° West 314 361 37,500 960 Climbing New York Center
01:42PM 39.9561 -77.4725 273° West 317 365 39,300 960 Climbing Cleveland Center
01:43PM 39.9603 -77.5831 273° West 309 356 40,300 840 Climbing Cleveland Center
01:44PM 39.9625 -77.6914 272° West 301 346 41,100 720 Climbing Cleveland Center
01:45PM 39.9656 -77.7983 272° West 296 341 41,800 660 Climbing Cleveland Center
01:46PM 39.9681 -77.9025 272° West 291 335 42,500 540 Climbing Cleveland Center
01:47PM 39.9714 -78.0050 272° West 285 328 43,000 240 Climbing Cleveland Center
01:48PM 39.9747 -78.1081 272° West 285 328 43,000  Level Cleveland Center
01:49PM 39.9781 -78.2361 272° West 293 337 43,000  Level Cleveland Center
01:50PM 39.9814 -78.3392 272° West 296 341 43,000  Level Cleveland Center
01:51PM 39.9847 -78.4503 272° West 302 348 43,000  Level Cleveland Center
01:52PM 39.9869 -78.5672 271° West 314 361 43,000  Level Cleveland Center
01:53PM 39.9894 -78.6825 272° West 319 367 43,000  Level Cleveland Center
01:54PM 39.9925 -78.8167 272° West 313 360 43,000  Level Cleveland Center
01:55PM 39.9950 -78.9283 272° West 310 357 43,000  Level Cleveland Center
01:56PM 39.9983 -79.0492 272° West 319 367 43,000  Level Cleveland Center
01:57PM 39.9997 -79.1625 271° West 316 364 43,000  Level Cleveland Center
01:58PM 40.0025 -79.2758 272° West 313 360 43,000  Level Cleveland Center
01:59PM 40.0036 -79.3911 271° West 315 362 43,000  Level Cleveland Center
02:00PM 40.0058 -79.5044 272° West 315 362 43,000  Level Cleveland Center
02:01PM 40.0069 -79.6200 271° West 317 365 43,000  Level Cleveland Center
02:03PM 40.0086 -79.7594 271° West 319 367 43,000  Level Cleveland Center
02:04PM 40.0097 -79.8750 271° West 319 367 43,000  Level Cleveland Center
02:05PM 40.0117 -79.9928 271° West 322 371 43,000  Level Cleveland Center
02:06PM 40.0119 -80.1103 270° West 323 372 43,000  Level Cleveland Center
02:07PM 40.0139 -80.2264 271° West 320 368 43,000  Level Cleveland Center
02:08PM 40.0144 -80.3433 270° West 321 369 43,000  Level Cleveland Center
02:09PM 40.0150 -80.4608 270° West 323 372 43,000  Level Cleveland Center
02:10PM 40.0164 -80.6003 271° West 321 369 43,000  Level Cleveland Center
02:11PM 40.0169 -80.7167 270° West 320 368 43,000  Level Cleveland Center
02:12PM 40.0172 -80.8328 270° West 321 369 43,000  Level Cleveland Center
02:13PM 40.0150 -80.8975 267° West 321 369 43,000  Level Indianapolis Center
02:14PM 40.0136 -81.0347 269° West 321 369 43,000  Level Indianapolis Center
02:15PM 40.0117 -81.1519 269° West 321 369 43,000  Level Indianapolis Center
02:16PM 40.0103 -81.2689 269° West 320 368 43,000  Level Indianapolis Center
02:17PM 40.0078 -81.3844 268° West 318 366 43,000  Level Indianapolis Center
02:18PM 40.0047 -81.5033 268° West 322 371 43,000  Level Indianapolis Center
02:19PM 40.0031 -81.6208 269° West 321 369 43,000  Level Indianapolis Center
02:20PM 40.0000 -81.7378 268° West 320 368 43,000  Level Indianapolis Center
02:21PM 39.9975 -81.8644 269° West 320 368 43,000  Level Indianapolis Center
02:22PM 39.9950 -81.9808 268° West 321 369 43,000  Level Indianapolis Center
02:23PM 39.9922 -82.0978 268° West 322 371 43,000  Level Indianapolis Center
02:24PM 39.9889 -82.2164 268° West 327 376 43,000  Level Indianapolis Center
02:25PM 39.9864 -82.3339 268° West 327 376 43,000  Level Indianapolis Center
02:26PM 39.9825 -82.4769 268° West 328 377 43,000  Level Indianapolis Center
02:27PM 39.9789 -82.5942 268° West 327 376 43,000  Level Indianapolis Center
02:28PM 39.9758 -82.7131 268° West 327 376 43,000  Level Indianapolis Center
02:29PM 39.9719 -82.8317 268° West 329 379 43,000  Level Indianapolis Center
02:30PM 39.9686 -82.9517 268° West 331 381 43,000  Level Indianapolis Center
02:31PM 39.9644 -83.0719 267° West 333 383 43,000  Level Indianapolis Center
02:32PM 39.9625 -83.2164 269° West 334 384 43,000  Level Indianapolis Center
02:33PM 39.9578 -83.3375 267° West 337 388 43,000  Level Indianapolis Center
02:34PM 39.9536 -83.4656 268° West 338 389 43,000  Level Indianapolis Center
02:35PM 39.9494 -83.5781 267° West 340 391 43,000  Level Indianapolis Center
02:36PM 39.9444 -83.7239 267° West 341 392 43,000  Level Indianapolis Center
02:37PM 39.9397 -83.8458 267° West 340 391 43,000  Level Indianapolis Center
02:38PM 39.9350 -83.9678 267° West 340 391 43,000  Level Indianapolis Center
02:39PM 39.9292 -84.0922 267° West 344 396 43,000  Level Indianapolis Center
02:40PM 39.9247 -84.2164 267° West 344 396 43,000  Level Indianapolis Center
02:41PM 39.9189 -84.3661 267° West 346 398 43,000  Level Indianapolis Center
02:42PM 39.9139 -84.4906 267° West 346 398 43,000  Level Indianapolis Center
02:44PM 39.9081 -84.6147 267° West 345 397 43,000  Level Indianapolis Center
02:45PM 39.9025 -84.7403 267° West 347 399 43,000  Level Indianapolis Center
02:46PM 39.8961 -84.8656 266° West 348 400 43,000  Level Indianapolis Center
02:47PM 39.8897 -84.9956 266° West 348 400 43,000  Level Indianapolis Center
02:48PM 39.8839 -85.1206 267° West 348 400 43,000  Level Indianapolis Center
02:49PM 39.8764 -85.2711 266° West 349 402 43,000  Level Indianapolis Center
02:50PM 39.8700 -85.3969 266° West 350 403 43,000  Level Indianapolis Center
02:51PM 39.8625 -85.5233 266° West 352 405 43,000  Level Indianapolis Center
02:52PM 39.8567 -85.6492 267° West 351 404 43,000  Level Indianapolis Center
02:53PM 39.8494 -85.7753 266° West 352 405 43,000  Level Indianapolis Center
02:54PM 39.8406 -85.9253 266° West 350 403 43,000  Level Indianapolis Center
02:55PM 39.8336 -86.0511 266° West 351 404 43,000  Level Indianapolis Center
02:56PM 39.8261 -86.1753 266° West 351 404 43,000 240 Level Indianapolis Center
02:57PM 39.8197 -86.2986 266° West 349 402 43,500 540 Climbing Indianapolis Center
02:58PM 39.8167 -86.4394 268° West 344 396 44,100 480 Climbing Indianapolis Center
02:59PM 39.8192 -86.5572 272° West 330 380 44,600 420 Climbing Indianapolis Center
03:00PM 39.8211 -86.6747 271° West 329 379 45,000 180 Climbing Indianapolis Center
03:01PM 39.8233 -86.7914 271° West 327 376 45,000  Level Indianapolis Center
03:02PM 39.8256 -86.9100 271° West 328 377 45,000  Level Indianapolis Center
03:03PM 39.8281 -87.0542 271° West 332 382 45,000  Level Indianapolis Center
03:04PM 39.8303 -87.1761 271° West 337 388 45,000  Level Indianapolis Center
03:05PM 39.8308 -87.3000 270° West 342 394 45,000  Level Indianapolis Center
03:06PM 39.8333 -87.4256 272° West 346 398 45,000  Level Indianapolis Center
03:07PM 39.8347 -87.5506 271° West 347 399 45,000  Level Indianapolis Center
03:08PM 39.8356 -87.7017 270° West 349 402 45,000  Level Indianapolis Center
03:09PM 39.8378 -87.8289 271° West 352 405 45,000  Level Indianapolis Center
03:10PM 39.8397 -87.9550 271° West 353 406 45,000  Level Indianapolis Center
03:11PM 39.8397 -88.0822 270° West 353 406 45,000  Level Indianapolis Center
03:12PM 39.8392 -88.2094 270° West 354 407 45,000  Level Kansas City Center
03:13PM 39.8400 -88.3383 271° West 354 407 45,000  Level Kansas City Center
03:14PM 39.8406 -88.4661 270° West 353 406 45,000  Level Kansas City Center
03:15PM 39.8417 -88.5944 271° West 354 407 45,000  Level Kansas City Center
03:16PM 39.8422 -88.7239 270° West 357 411 45,000  Level Kansas City Center
03:17PM 39.8425 -88.8517 270° West 354 407 45,000  Level Kansas City Center
03:18PM 39.8419 -88.9819 270° West 357 411 45,000  Level Kansas City Center
03:19PM 39.8422 -89.1114 270° West 357 411 45,000  Level Kansas City Center
03:21PM 39.8422 -89.2664 270° West 356 410 45,000  Level Kansas City Center
03:22PM 39.8417 -89.3958 270° West 357 411 45,000  Level Kansas City Center
03:23PM 39.8408 -89.5244 270° West 356 410 45,000  Level Kansas City Center
03:24PM 39.8397 -89.6547 269° West 357 411 45,000  Level Kansas City Center
03:25PM 39.8300 -89.7839 264° West 358 412 45,000  Level Kansas City Center
03:26PM 39.8178 -89.9117 263° West 357 411 45,000  Level Kansas City Center
03:27PM 39.8072 -90.0408 264° West 358 412 45,000  Level Kansas City Center
03:28PM 39.7947 -90.1714 263° West 360 414 45,000  Level Kansas City Center
03:29PM 39.7803 -90.3275 263° West 362 417 45,000  Level Kansas City Center
03:30PM 39.7683 -90.4606 263° West 366 421 45,000  Level Kansas City Center
03:31PM 39.7567 -90.5925 263° West 367 422 45,000  Level Kansas City Center
03:32PM 39.7431 -90.7342 263° West 369 425 45,000  Level Kansas City Center
03:33PM 39.7292 -90.8661 262° West 371 427 45,000  Level Kansas City Center
03:34PM 39.7164 -90.9986 263° West 371 427 45,000  Level Kansas City Center
03:35PM 39.7042 -91.1289 263° West 368 423 45,000  Level Kansas City Center
03:36PM 39.6897 -91.2639 262° West 374 430 45,000  Level Kansas City Center
03:37PM 39.6758 -91.4081 263° West 375 432 45,000  Level Kansas City Center
03:38PM 39.6614 -91.5425 262° West 376 433 45,000  Level Kansas City Center
03:39PM 39.6469 -91.6756 262° West 375 432 45,000  Level Kansas City Center
03:40PM 39.6300 -91.8358 262° West 374 430 45,000  Level Kansas City Center
03:41PM 39.6158 -91.9708 262° West 377 434 45,000  Level Kansas City Center
03:42PM 39.6019 -92.1042 262° West 376 433 45,000  Level Kansas City Center
03:43PM 39.5864 -92.2381 261° West 375 432 45,000  Level Kansas City Center
03:44PM 39.5719 -92.3739 262° West 377 434 45,000  Level Kansas City Center
03:45PM 39.5578 -92.5058 262° West 375 432 45,000  Level Kansas City Center
03:46PM 39.5436 -92.6392 262° West 375 432 45,000  Level Kansas City Center
03:47PM 39.5244 -92.8000 261° West 375 432 45,000  Level Kansas City Center
03:48PM 39.5086 -92.9325 261° West 375 432 45,000  Level Kansas City Center
03:49PM 39.4936 -93.0661 262° West 375 432 45,000  Level Kansas City Center
03:50PM 39.4772 -93.1978 261° West 374 430 45,000  Level Kansas City Center
03:51PM 39.4594 -93.3306 260° West 375 432 45,000  Level Kansas City Center
03:52PM 39.4444 -93.4656 262° West 378 435 45,000  Level Kansas City Center
03:54PM 39.4261 -93.6278 262° West 378 435 45,000  Level Kansas City Center
03:55PM 39.4097 -93.7550 261° West 376 433 45,000  Level Kansas City Center
03:56PM 39.3917 -93.9058 261° West 380 437 45,000  Level Kansas City Center
03:57PM 39.3758 -94.0350 261° West 380 437 45,000  Level Kansas City Center
03:58PM 39.3594 -94.1628 261° West 377 434 45,000  Level Kansas City Center
03:59PM 39.3406 -94.3153 261° West 383 441 45,000  Level Kansas City Center
04:00PM 39.3239 -94.4444 261° West 380 437 45,000  Level Kansas City Center
04:01PM 39.3044 -94.5956 261° West 383 441 45,000  Level Kansas City Center
04:02PM 39.2867 -94.7228 260° West 379 436 45,000  Level Kansas City Center
04:03PM 39.2886 -94.8764 271° West 382 440 45,000  Level Kansas City Center
04:04PM 39.2897 -95.0072 271° West 382 440 45,000  Level Kansas City Center
04:05PM 39.2919 -95.1569 271° West 382 440 45,000  Level Kansas City Center
04:06PM 39.2944 -95.3000 271° West 381 438 45,000  Level Kansas City Center
04:07PM 39.2975 -95.4400 272° West 374 430 45,000  Level Kansas City Center
04:08PM 39.2983 -95.5644 271° West 381 438 45,000  Level Kansas City Center
04:09PM 39.3000 -95.7172 271° West 380 437 45,000  Level Kansas City Center
04:10PM 39.3008 -95.8483 271° West 382 440 45,000  Level Kansas City Center
04:11PM 39.3019 -96.0011 271° West 380 437 45,000  Level Kansas City Center
04:12PM 39.3031 -96.1328 271° West 383 441 45,000  Level Kansas City Center
04:13PM 39.3033 -96.2789 270° West 383 441 45,000  Level Kansas City Center
04:14PM 39.3044 -96.4181 271° West 387 445 45,000  Level Kansas City Center
04:15PM 39.3056 -96.5733 271° West 386 444 45,000  Level Kansas City Center
04:16PM 39.3061 -96.7058 270° West 386 444 45,000  Level Kansas City Center
04:17PM 39.3061 -96.8608 270° West 385 443 45,000  Level Kansas City Center
04:18PM 39.3064 -96.9936 270° West 386 444 45,000  Level Kansas City Center
04:19PM 39.3050 -97.1264 269° West 386 444 45,000  Level Kansas City Center
04:20PM 39.3053 -97.2811 270° West 386 444 45,000  Level Kansas City Center
04:21PM 39.3047 -97.4144 270° West 388 447 45,000  Level Kansas City Center
04:22PM 39.3031 -97.5761 269° West 393 452 45,000  Level Kansas City Center
04:23PM 39.3017 -97.7158 269° West 390 449 45,000  Level Kansas City Center
04:25PM 39.3003 -97.8561 269° West 389 448 45,000  Level Kansas City Center
04:26PM 39.3025 -97.9914 271° West 381 438 45,000  Level Kansas City Center
04:27PM 39.3003 -98.1458 269° West 384 442 45,000  Level Kansas City Center
04:28PM 39.2953 -98.2711 267° West 390 449 45,000  Level Kansas City Center
04:29PM 39.2944 -98.4381 270° West 387 445 45,000  Level Kansas City Center
04:30PM 39.2919 -98.5678 269° West 386 444 45,000  Level Kansas City Center
04:31PM 39.2931 -98.7203 271° West 382 440 45,000  Level Kansas City Center
04:32PM 39.2911 -98.8531 269° West 385 443 45,000  Level Kansas City Center
04:33PM 39.2889 -98.9878 269° West 391 450 45,000  Level Kansas City Center
04:34PM 39.2903 -99.1244 271° West 386 444 45,000  Level Kansas City Center
04:35PM 39.2914 -99.2897 271° West 386 444 45,000  Level Kansas City Center
04:36PM 39.2931 -99.4283 271° West 387 445 45,000  Level Kansas City Center
04:37PM 39.2944 -99.5667 271° West 386 444 45,000  Level Kansas City Center
04:38PM 39.2947 -99.7206 270° West 384 442 45,000  Level Kansas City Center
04:39PM 39.2953 -99.8547 270° West 386 444 45,000  Level Kansas City Center
04:40PM 39.2964 -100.0133 271° West 391 450 45,000  Level Kansas City Center
04:41PM 39.2975 -100.1811 271° West 398 458 45,000  Level Denver Center
04:42PM 39.2975 -100.3406 270° West 397 457 45,000  Level Denver Center
04:43PM 39.2975 -100.4756 270° West 395 455 45,000  Level Denver Center
04:44PM 39.2975 -100.6381 270° West 402 463 45,000  Level Denver Center
04:45PM 39.2975 -100.7769 270° West 404 465 45,000  Level Denver Center
04:46PM 39.2967 -100.9369 270° West 402 463 45,000  Level Denver Center
04:47PM 39.2953 -101.0781 269° West 407 468 45,000  Level Denver Center
04:49PM 39.2956 -101.2203 270° West 411 473 45,000  Level Denver Center
04:50PM 39.2942 -101.3875 269° West 417 480 45,000  Level Denver Center
04:51PM 39.2925 -101.5286 269° West 412 474 45,000  Level Denver Center
04:52PM 39.2911 -101.6936 269° West 412 474 45,000  Level Denver Center
04:53PM 39.2889 -101.8422 269° West 410 472 45,000  Level Denver Center
04:54PM 39.2864 -101.9836 269° West 412 474 45,000  Level Denver Center
04:55PM 39.2850 -102.1489 269° West 412 474 45,000  Level Denver Center
04:56PM 39.2831 -102.2892 269° West 411 473 45,000  Level Denver Center
04:57PM 39.2797 -102.4558 269° West 415 478 45,000  Level Denver Center
04:58PM 39.2758 -102.6433 269° West 411 473 45,000  Level Denver Center
04:59PM 39.2747 -102.7681 269° West 405 466 45,000  Level Denver Center
05:00PM 39.2719 -102.9419 269° West 403 464 45,000  Level Denver Center
05:01PM 39.2683 -103.0856 268° West 402 463 45,000  Level Denver Center
05:02PM 39.2644 -103.2261 268° West 395 455 45,000  Level Denver Center
05:03PM 39.2611 -103.3717 268° West 404 465 45,000  Level Denver Center
05:04PM 39.2575 -103.5156 268° West 402 463 45,000  Level Denver Center
05:05PM 39.2542 -103.6592 268° West 402 463 45,000  Level Denver Center
05:06PM 39.2481 -103.8333 267° West 405 466 45,000  Level Denver Center
05:07PM 39.2444 -103.9772 268° West 403 464 45,000  Level Denver Center
05:09PM 39.2392 -104.1508 268° West 404 465 45,000  Level Denver Center
05:10PM 39.2347 -104.2947 268° West 403 464 45,000  Level Denver Center
05:11PM 39.2303 -104.4389 268° West 402 463 45,000  Level Denver Center
05:12PM 39.2244 -104.5822 267° West 399 459 45,000  Level Denver Center
05:13PM 39.2200 -104.7242 268° West 394 453 45,000  Level Denver Center
05:14PM 39.2131 -104.8944 267° West 394 453 45,000  Level Denver Center
05:15PM 39.2081 -105.0333 267° West 388 447 45,000  Level Denver Center
05:16PM 39.2025 -105.1756 267° West 393 452 45,100  Climbing Denver Center
05:17PM 39.1967 -105.3147 267° West 390 449 45,000 -60 Descending Denver Center
05:18PM 39.1911 -105.4525 267° West 386 444 45,000  Level Denver Center
05:19PM 39.1847 -105.5903 267° West 385 443 45,000  Level Denver Center
05:20PM 39.1794 -105.7283 267° West 386 444 45,000  Level Denver Center
05:21PM 39.1706 -105.8994 266° West 398 458 45,000  Level Denver Center
05:22PM 39.1650 -106.0406 267° West 396 456 45,000  Level Denver Center
05:23PM 39.1564 -106.1900 266° West 395 455 45,000  Level Denver Center
05:24PM 39.1503 -106.3294 267° West 404 465 45,000  Level Denver Center
05:25PM 39.1422 -106.4900 266° West 404 465 45,000  Level Denver Center
05:26PM 39.1331 -106.6283 265° West 405 466 45,000  Level Denver Center
05:27PM 39.1264 -106.7678 267° West 407 468 45,100  Climbing Denver Center
05:28PM 39.1172 -106.9300 266° West 407 468 45,000 -60 Descending Denver Center
05:29PM 39.1092 -107.0664 266° West 402 463 45,000  Level Denver Center
05:30PM 39.0989 -107.2261 265° West 401 461 45,100  Climbing Denver Center
05:31PM 39.0914 -107.3617 266° West 398 458 45,000 -60 Descending Denver Center
05:32PM 39.0825 -107.5219 266° West 401 461 45,000  Level Denver Center
05:33PM 39.0744 -107.6583 266° West 400 460 45,100  Climbing Denver Center
05:34PM 39.0642 -107.8147 265° West 395 455 45,000 -60 Descending Denver Center
05:35PM 39.0561 -107.9489 266° West 394 453 45,000  Level Denver Center
05:37PM 39.0464 -108.1050 265° West 393 452 45,000  Level Denver Center
05:38PM 39.0383 -108.2414 266° West 396 456 45,000  Level Denver Center
05:39PM 39.0283 -108.3767 265° West 397 457 45,000  Level Denver Center
05:40PM 39.0186 -108.5314 265° West 390 449 45,000  Level Denver Center
05:41PM 39.0086 -108.6644 265° West 388 447 45,000  Level Denver Center
05:42PM 38.9978 -108.8208 265° West 390 449 45,000  Level Denver Center
05:43PM 38.9886 -108.9547 265° West 390 449 45,000  Level Denver Center
05:44PM 38.9758 -109.1108 264° West 390 449 45,000  Level Denver Center
05:45PM 38.9669 -109.2442 265° West 389 448 45,000  Level Denver Center
05:46PM 38.9544 -109.4031 264° West 399 459 45,000  Level Denver Center
05:47PM 38.9433 -109.5369 264° West 394 453 45,000  Level Denver Center
05:48PM 38.9347 -109.6739 265° West 400 460 45,000  Level Denver Center
05:49PM 38.9222 -109.8311 264° West 397 457 45,000  Level Denver Center
05:50PM 38.9150 -109.9664 266° West 396 456 45,000  Level Denver Center
05:51PM 38.9061 -110.1250 266° West 398 458 45,000  Level Denver Center
05:52PM 38.8975 -110.2583 265° West 395 455 45,000  Level Salt Lake Center
05:53PM 38.8906 -110.3944 266° West 398 458 45,000  Level Salt Lake Center
05:54PM 38.8825 -110.5539 266° West 401 461 45,000  Level Salt Lake Center
05:55PM 38.8736 -110.6917 265° West 404 465 45,000  Level Salt Lake Center
05:56PM 38.8644 -110.8539 266° West 407 468 45,000  Level Salt Lake Center
05:57PM 38.8564 -110.9883 266° West 405 466 45,000  Level Salt Lake Center
05:58PM 38.8478 -111.1300 266° West 401 461 45,000  Level Salt Lake Center
05:59PM 38.8394 -111.2739 266° West 404 465 45,000  Level Salt Lake Center
06:00PM 38.8283 -111.4436 265° West 400 460 45,000  Level Salt Lake Center
06:01PM 38.8189 -111.5858 265° West 402 463 45,000  Level Salt Lake Center
06:02PM 38.8092 -111.7306 265° West 408 470 45,000  Level Salt Lake Center
06:03PM 38.7994 -111.8739 265° West 407 468 45,000  Level Salt Lake Center
06:04PM 38.7892 -112.0164 265° West 404 465 45,000  Level Salt Lake Center
06:05PM 38.7792 -112.1600 265° West 406 467 45,000  Level Salt Lake Center
06:06PM 38.7694 -112.3019 265° West 404 465 45,000  Level Salt Lake Center
06:07PM 38.7561 -112.4722 264° West 403 464 45,000  Level Salt Lake Center
06:08PM 38.7461 -112.6144 265° West 402 463 45,000  Level Salt Lake Center
06:09PM 38.7339 -112.7567 264° West 403 464 45,000  Level Salt Lake Center
06:10PM 38.7242 -112.8964 265° West 400 460 45,000  Level Salt Lake Center
06:11PM 38.7136 -113.0356 264° West 398 458 45,000  Level Salt Lake Center
06:12PM 38.7022 -113.1711 264° West 391 450 45,000  Level Salt Lake Center
06:14PM 38.6908 -113.3086 264° West 391 450 45,000  Level Salt Lake Center
06:15PM 38.6783 -113.4692 264° West 383 441 45,000  Level Salt Lake Center
06:16PM 38.6661 -113.6069 264° West 390 449 45,000  Level Salt Lake Center
06:17PM 38.6561 -113.7422 265° West 386 444 45,000  Level Salt Lake Center
06:18PM 38.6444 -113.8800 264° West 389 448 45,000  Level Salt Lake Center
06:19PM 38.6314 -114.0169 263° West 389 448 45,000  Level Salt Lake Center
06:20PM 38.6203 -114.1536 264° West 389 448 45,000  Level Salt Lake Center
06:21PM 38.6083 -114.2892 264° West 387 445 45,000  Level Salt Lake Center
06:22PM 38.5917 -114.4544 263° West 392 451 45,000  Level Salt Lake Center
06:23PM 38.5800 -114.5878 264° West 385 443 45,000  Level Salt Lake Center
06:24PM 38.5678 -114.7228 263° West 384 442 45,000  Level Salt Lake Center
06:25PM 38.5553 -114.8589 263° West 386 444 45,000  Level Salt Lake Center
06:26PM 38.5425 -114.9961 263° West 390 449 45,000  Level Salt Lake Center
06:27PM 38.5297 -115.1317 263° West 387 445 45,000  Level Salt Lake Center
06:28PM 38.5156 -115.2664 262° West 385 443 45,000  Level Salt Lake Center
06:29PM 38.5017 -115.4067 263° West 388 447 45,000  Level Salt Lake Center
06:30PM 38.4881 -115.5411 263° West 383 441 45,000  Level Salt Lake Center
06:31PM 38.4722 -115.7022 263° West 383 441 45,000  Level Salt Lake Center
06:32PM 38.4578 -115.8375 262° West 384 442 45,000  Level Salt Lake Center
06:33PM 38.4436 -115.9731 262° West 385 443 45,000  Level Salt Lake Center
06:34PM 38.4303 -116.1081 263° West 385 443 45,000  Level Salt Lake Center
06:35PM 38.4047 -116.2436 257° West 390 449 45,000  Level Salt Lake Center
06:36PM 38.3539 -116.3708 243° Southwest 399 459 45,000  Level Salt Lake Center
06:37PM 38.3144 -116.4731 244° Southwest 401 461 45,000  Level Oakland Center
06:38PM 38.2644 -116.6014 244° Southwest 405 466 45,000  Level Oakland Center
06:39PM 38.2144 -116.7306 244° Southwest 404 465 45,000  Level Oakland Center
06:40PM 38.1647 -116.8600 244° Southwest 406 467 45,000  Level Oakland Center
06:41PM 38.1136 -116.9894 243° Southwest 406 467 45,000  Level Oakland Center
06:42PM 38.0611 -117.1211 243° Southwest 408 470 45,000  Level Oakland Center
06:43PM 38.0086 -117.2564 244° Southwest 418 481 45,000 -240 Level Oakland Center
06:44PM 37.9556 -117.3889 243° Southwest 415 478 44,600 -900 Descending Oakland Center
06:45PM 37.9053 -117.5172 244° Southwest 408 470 43,200 -1,320 Descending Oakland Center
06:46PM 37.8550 -117.6417 243° Southwest 398 458 41,900 -1,320 Descending Oakland Center
06:47PM 37.8047 -117.7692 244° Southwest 403 464 40,600 -1,320 Descending Oakland Center
06:48PM 37.7517 -117.8950 242° Southwest 403 464 39,300 -1,440 Descending Oakland Center
06:49PM 37.6903 -118.0467 243° Southwest 403 464 37,700 -1,440 Descending Oakland Center
06:50PM 37.6422 -118.1669 243° Southwest 389 448 36,400 -1,260 Descending Oakland Center
06:51PM 37.5936 -118.2836 242° Southwest 379 436 35,200 -1,200 Descending Oakland Center
06:52PM 37.5467 -118.3983 243° Southwest 371 427 34,000 -1,200 Descending Oakland Center
06:53PM 37.4978 -118.5197 243° Southwest 386 444 32,800 -1,260 Descending Oakland Center
06:54PM 37.4475 -118.6444 243° Southwest 399 459 31,500 -1,380 Descending Oakland Center
06:55PM 37.3958 -118.7722 243° Southwest 409 471 30,100 -780 Descending Oakland Center
06:56PM 37.3797 -118.9028 261° West 390 449 30,000 -480 Descending Oakland Center
06:57PM 37.3656 -119.0336 262° West 382 440 29,200 -1,140 Descending Oakland Center
06:58PM 37.3531 -119.1656 263° West 382 440 27,700 -1,620 Descending Oakland Center
06:59PM 37.3361 -119.3181 262° West 372 428 25,900 -1,680 Descending Oakland Center
07:00PM 37.3233 -119.4444 263° West 368 423 24,400 -1,500 Descending Oakland Center
07:01PM 37.3100 -119.5697 262° West 364 419 22,900 -1,500 Descending Oakland Center
07:02PM 37.2964 -119.6919 262° West 357 411 21,400 -1,500 Descending Oakland Center
07:03PM 37.2842 -119.8150 263° West 352 405 19,900 -1,440 Descending Oakland Center
07:04PM 37.2711 -119.9222 261° West 341 392 18,500 -1,380 Descending Oakland Center
07:05PM 37.2586 -120.0392 262° West 340 391 17,100 -1,680 Descending Oakland Center
07:06PM 37.2431 -120.1800 262° West 339 390 15,100 -1,800 Descending Oakland Center
07:07PM 37.2306 -120.2944 262° West 330 380 13,500 -1,500 Descending Oakland Center
07:08PM 37.2181 -120.4047 262° West 320 368 12,100 -1,080 Descending Oakland Center
07:09PM 37.2000 -120.5000 257° West 320 368 11,400 -1,020 Descending Northern Cal TRACON
07:10PM 37.1833 -120.6000 258° West 287 330 10,100 -720 Descending Northern Cal TRACON
07:11PM 37.1500 -120.7000 247° West 290 334 10,000 -60 Descending Northern Cal TRACON
07:12PM 37.1333 -120.8000 258° West 293 337 10,000  Level Northern Cal TRACON
07:13PM 37.1167 -120.9000 258° West 295 339 10,000  Level Northern Cal TRACON
07:14PM 37.0833 -121.0000 247° West 298 343 10,000  Level Northern Cal TRACON
07:15PM 37.0667 -121.1000 258° West 297 342 10,000  Level Northern Cal TRACON
07:16PM 37.0500 -121.2000 258° West 295 339 10,000  Level Northern Cal TRACON
07:17PM 37.0333 -121.3000 258° West 296 341 10,000 -480 Level Northern Cal TRACON
07:18PM 37.0000 -121.3833 243° Southwest 249 287 9,100 -1,020 Descending Northern Cal TRACON
07:19PM 36.9833 -121.4667 256° West 235 270 8,000 -600 Descending Northern Cal TRACON
07:20PM 36.9667 -121.5500 256° West 228 262 8,000 -600 Level Northern Cal TRACON
07:22PM 36.9878 -121.6194 291° West 238 274 6,700 -1,320 Descending Oakland Center
07:23PM 37.0344 -121.7072 304° West 254 292 5,100 -840 Descending Oakland Center
07:24PM 37.0742 -121.7800 304° West 253 291 5,000 -60 Descending Oakland Center
07:25PM 37.1139 -121.8556 303° West 259 298 5,000  Level Oakland Center
07:26PM 37.1667 -121.8833 337° Northwest 260 299 5,100  Climbing Northern Cal TRACON
07:27PM 37.2167 -121.9333 321° Northwest 212 244 5,100 -300 Level Northern Cal TRACON
07:28PM 37.2667 -121.9667 332° Northwest 237 273 4,600 -840 Descending Northern Cal TRACON
07:29PM 37.3333 -122.0000 338° Northwest 239 275 3,500 -840 Descending Northern Cal TRACON
07:30PM 37.3833 -122.0500 322° Northwest 218 251 3,000 -540 Descending Northern Cal TRACON
07:31PM 37.4167 -122.0667 338° Northwest 213 245 2,500 -600 Descending Northern Cal TRACON
07:32PM 37.4333 -122.0167 67° East 166 191 1,900 -600 Descending Northern Cal TRACON
07:33PM 37.4167 -121.9833 122° Southeast 123 142 1,300 -660 Descending Northern Cal TRACON
07:34PM 37.3833 -121.9667 158° South 126 145 600 -720 Descending Northern Cal TRACON